Mankato, Minnesota
Current Conditions -  °F | °C
As of 6:55 PM on Saturday 25 Oct 2014 (Local Time) from KMKT Reporting Station
Clear Clear  
Wind Chill: 55°   Ceiling: Unl
Heat Index: 55°   Visibility: 10mi
Dew Point: 27°   Wind: 8mph
Humidity: 33%   Direction: 310°NW
Pressure: 30.07"   Gusts: NA
Location:  44.17°N, 94°W
Report Text: KMKT 252355Z AUTO 31007KT 10SM CLR 13/M03 A3007 RMK AO1 10180 20130 401800100 54000
Loading
Personal Weather Stations






























Interactive Weather Map New forecast layout! Learn more

10-Day Weather Forecast

Advertisements
Track Severe Weather on mobile